Basanija, Croatia

3:05 PM CEST on March 30, 2017 (GMT +0200)
s52zo | | Change Station

Elev 46 ft 45.47 °N, 13.51 °E | Updated 4 seconds ago

Clear
Clear
66.4 °F
Feels Like 66.4 °F
N
1.6
Wind Variable Wind from NNE
Gusts 4.5 mph

Today
High -- | Low -- °F
--% Chance of Precip.
Yesterday
High -- | Low -- °F
Precip. -- in
Pressure 30.27 in
Visibility 6.2 miles
Clouds Few 5000 ft
Dew Point 48 °F
Humidity 52%
Rainfall 0.00 in
Snow Depth Not available.
6:50 AM 7:31 PM
Waxing Crescent, 8% visible
METAR LDPL 301300Z 10008KT 060V140 9999 FEW050 23/05 Q1025 BECMG 27008KT
Pressure 30.27 in
Visibility 6.2 miles
Clouds Few 5000 ft
Dew Point 48 °F
Humidity 52%
Rainfall 0.00 in
Snow Depth Not available.
6:50 AM 7:31 PM
Waxing Crescent, 8% visible
METAR LDPL 301300Z 10008KT 060V140 9999 FEW050 23/05 Q1025 BECMG 27008KT

Get Severe Weather Alerts

Thanks for signing up!

Be on the lookout for a verification email in your inbox.

You'll start receiving the daily forecast at 8 AM.

×

10-Day Weather Forecast

×

Almanac

Astronomy

Mar. 30, 2017 Rise Set
Actual Time
Civil Twilight
Nautical Twilight
Astronomical Twilight
Moon
Length of Visible Light
Length of Day
Tomorrow will be .
, % of the Moon is Illuminated

Today's Extremes

Country Highs Country Lows

Community

WunderPhotos

Upload Photos

1,962,540 photos uploaded!

WunderBlog® & News

Nearby

Air Quality

  Air Quality AQ Index Pollutant
Not available.

Snow Depth

Station Depth Elevation

Earthquake Activity

City Distance Mag. Time & Date
Minimum magnitude displayed is 2.5.

Earthquake Activity

City Distance Mag. Time & Date
Minimum magnitude displayed is 2.5.

Coastal Water Temperatures

Place Temperature

Stations

Nearby Weather Stations

Station Location Temp. Windchill Dew Point Humidity Wind Precip. Elev Updated Type